sensor_id;sensor_type;location;lat;lon;timestamp;P1;durP1;ratioP1;P2;durP2;ratioP2
54897;SDS011;40800;52.704;6.398;2023-09-18T00:01:47;53.40;;;49.15;;
54897;SDS011;40800;52.704;6.398;2023-09-18T00:04:13;55.67;;;51.17;;
54897;SDS011;40800;52.704;6.398;2023-09-18T00:06:38;53.88;;;49.58;;
54897;SDS011;40800;52.704;6.398;2023-09-18T00:09:04;53.45;;;49.08;;
54897;SDS011;40800;52.704;6.398;2023-09-18T00:11:32;51.22;;;47.08;;
54897;SDS011;40800;52.704;6.398;2023-09-18T00:13:57;52.97;;;48.42;;
54897;SDS011;40800;52.704;6.398;2023-09-18T00:16:23;52.55;;;48.25;;
54897;SDS011;40800;52.704;6.398;2023-09-18T00:18:52;51.92;;;47.83;;
54897;SDS011;40800;52.704;6.398;2023-09-18T00:21:17;52.08;;;48.08;;
54897;SDS011;40800;52.704;6.398;2023-09-18T00:23:43;50.13;;;46.10;;
54897;SDS011;40800;52.704;6.398;2023-09-18T00:26:08;51.50;;;47.38;;
54897;SDS011;40800;52.704;6.398;2023-09-18T00:28:34;49.80;;;46.00;;
54897;SDS011;40800;52.704;6.398;2023-09-18T00:30:59;50.15;;;46.20;;
54897;SDS011;40800;52.704;6.398;2023-09-18T00:33:25;50.97;;;47.08;;
54897;SDS011;40800;52.704;6.398;2023-09-18T00:35:51;50.20;;;46.28;;
54897;SDS011;40800;52.704;6.398;2023-09-18T00:38:17;51.53;;;47.43;;
54897;SDS011;40800;52.704;6.398;2023-09-18T00:40:44;50.85;;;46.60;;
54897;SDS011;40800;52.704;6.398;2023-09-18T00:43:10;50.50;;;46.50;;
54897;SDS011;40800;52.704;6.398;2023-09-18T00:45:38;51.22;;;47.35;;
54897;SDS011;40800;52.704;6.398;2023-09-18T00:48:07;52.38;;;48.47;;
54897;SDS011;40800;52.704;6.398;2023-09-18T00:50:33;51.70;;;47.70;;
54897;SDS011;40800;52.704;6.398;2023-09-18T00:53:02;53.17;;;48.72;;
54897;SDS011;40800;52.704;6.398;2023-09-18T00:55:28;51.63;;;47.65;;
54897;SDS011;40800;52.704;6.398;2023-09-18T00:57:56;52.40;;;48.30;;
54897;SDS011;40800;52.704;6.398;2023-09-18T01:00:22;53.40;;;49.15;;
54897;SDS011;40800;52.704;6.398;2023-09-18T01:02:48;53.10;;;49.08;;
54897;SDS011;40800;52.704;6.398;2023-09-18T01:05:14;52.40;;;48.30;;
54897;SDS011;40800;52.704;6.398;2023-09-18T01:07:41;54.50;;;50.10;;
54897;SDS011;40800;52.704;6.398;2023-09-18T01:10:07;55.97;;;51.28;;
54897;SDS011;40800;52.704;6.398;2023-09-18T01:12:39;57.55;;;52.83;;
54897;SDS011;40800;52.704;6.398;2023-09-18T01:17:51;57.92;;;53.35;;
54897;SDS011;40800;52.704;6.398;2023-09-18T01:20:17;58.58;;;53.80;;
54897;SDS011;40800;52.704;6.398;2023-09-18T01:22:42;59.03;;;54.30;;
54897;SDS011;40800;52.704;6.398;2023-09-18T01:25:08;61.33;;;56.13;;
54897;SDS011;40800;52.704;6.398;2023-09-18T01:27:34;60.80;;;55.80;;
54897;SDS011;40800;52.704;6.398;2023-09-18T01:30:00;60.80;;;55.80;;
54897;SDS011;40800;52.704;6.398;2023-09-18T01:32:26;62.97;;;57.67;;
54897;SDS011;40800;52.704;6.398;2023-09-18T01:34:56;60.50;;;55.20;;
54897;SDS011;40800;52.704;6.398;2023-09-18T01:37:23;63.35;;;58.10;;
54897;SDS011;40800;52.704;6.398;2023-09-18T01:39:51;62.50;;;57.22;;
54897;SDS011;40800;52.704;6.398;2023-09-18T01:44:43;62.53;;;57.25;;
54897;SDS011;40800;52.704;6.398;2023-09-18T01:47:13;62.10;;;57.10;;
54897;SDS011;40800;52.704;6.398;2023-09-18T01:49:41;62.45;;;57.33;;
54897;SDS011;40800;52.704;6.398;2023-09-18T01:52:07;61.83;;;56.72;;
54897;SDS011;40800;52.704;6.398;2023-09-18T01:54:34;62.08;;;56.92;;
54897;SDS011;40800;52.704;6.398;2023-09-18T01:57:00;62.03;;;56.97;;
54897;SDS011;40800;52.704;6.398;2023-09-18T01:59:26;61.27;;;56.23;;
54897;SDS011;40800;52.704;6.398;2023-09-18T02:01:52;62.88;;;57.70;;
54897;SDS011;40800;52.704;6.398;2023-09-18T02:04:19;62.25;;;57.08;;
54897;SDS011;40800;52.704;6.398;2023-09-18T02:06:46;60.55;;;55.53;;
54897;SDS011;40800;52.704;6.398;2023-09-18T02:09:12;60.20;;;55.47;;
54897;SDS011;40800;52.704;6.398;2023-09-18T02:11:39;60.85;;;55.95;;
54897;SDS011;40800;52.704;6.398;2023-09-18T02:14:06;60.63;;;55.67;;
54897;SDS011;40800;52.704;6.398;2023-09-18T02:16:32;61.15;;;56.13;;
54897;SDS011;40800;52.704;6.398;2023-09-18T02:18:59;61.00;;;55.90;;
54897;SDS011;40800;52.704;6.398;2023-09-18T02:21:24;58.08;;;53.53;;
54897;SDS011;40800;52.704;6.398;2023-09-18T02:23:51;59.30;;;54.53;;
54897;SDS011;40800;52.704;6.398;2023-09-18T02:26:17;58.63;;;53.90;;
54897;SDS011;40800;52.704;6.398;2023-09-18T02:28:43;57.97;;;53.20;;
54897;SDS011;40800;52.704;6.398;2023-09-18T02:31:09;57.75;;;53.05;;
54897;SDS011;40800;52.704;6.398;2023-09-18T02:33:35;60.53;;;55.60;;
54897;SDS011;40800;52.704;6.398;2023-09-18T02:36:01;59.08;;;54.25;;
54897;SDS011;40800;52.704;6.398;2023-09-18T02:38:27;59.35;;;54.35;;
54897;SDS011;40800;52.704;6.398;2023-09-18T02:40:53;57.93;;;53.33;;
54897;SDS011;40800;52.704;6.398;2023-09-18T02:43:19;57.58;;;52.72;;
54897;SDS011;40800;52.704;6.398;2023-09-18T02:45:45;56.53;;;51.85;;
54897;SDS011;40800;52.704;6.398;2023-09-18T02:48:11;56.97;;;52.38;;
54897;SDS011;40800;52.704;6.398;2023-09-18T02:50:37;57.15;;;52.75;;
54897;SDS011;40800;52.704;6.398;2023-09-18T02:53:05;59.17;;;54.40;;
54897;SDS011;40800;52.704;6.398;2023-09-18T02:55:31;57.38;;;52.78;;
54897;SDS011;40800;52.704;6.398;2023-09-18T02:57:57;57.22;;;52.38;;
54897;SDS011;40800;52.704;6.398;2023-09-18T03:00:22;56.08;;;51.78;;
54897;SDS011;40800;52.704;6.398;2023-09-18T03:02:48;55.65;;;51.25;;
54897;SDS011;40800;52.704;6.398;2023-09-18T03:05:14;55.03;;;50.70;;
54897;SDS011;40800;52.704;6.398;2023-09-18T03:07:39;55.25;;;50.70;;
54897;SDS011;40800;52.704;6.398;2023-09-18T03:10:05;56.17;;;51.80;;
54897;SDS011;40800;52.704;6.398;2023-09-18T03:12:31;54.30;;;49.90;;
54897;SDS011;40800;52.704;6.398;2023-09-18T03:14:56;53.08;;;48.88;;
54897;SDS011;40800;52.704;6.398;2023-09-18T03:17:22;53.70;;;49.17;;
54897;SDS011;40800;52.704;6.398;2023-09-18T03:19:48;53.58;;;49.35;;
54897;SDS011;40800;52.704;6.398;2023-09-18T03:22:14;53.73;;;49.63;;
54897;SDS011;40800;52.704;6.398;2023-09-18T03:24:40;52.83;;;48.78;;
54897;SDS011;40800;52.704;6.398;2023-09-18T03:27:05;53.85;;;49.65;;
54897;SDS011;40800;52.704;6.398;2023-09-18T03:29:31;54.88;;;50.67;;
54897;SDS011;40800;52.704;6.398;2023-09-18T03:31:56;52.25;;;48.33;;
54897;SDS011;40800;52.704;6.398;2023-09-18T03:36:52;51.90;;;48.00;;
54897;SDS011;40800;52.704;6.398;2023-09-18T03:39:18;50.75;;;46.90;;
54897;SDS011;40800;52.704;6.398;2023-09-18T03:41:43;50.38;;;46.45;;
54897;SDS011;40800;52.704;6.398;2023-09-18T03:44:10;50.47;;;46.53;;
54897;SDS011;40800;52.704;6.398;2023-09-18T03:46:35;50.58;;;46.80;;
54897;SDS011;40800;52.704;6.398;2023-09-18T03:49:01;50.75;;;47.00;;
54897;SDS011;40800;52.704;6.398;2023-09-18T03:51:28;49.00;;;45.40;;
54897;SDS011;40800;52.704;6.398;2023-09-18T03:53:54;48.15;;;44.63;;
54897;SDS011;40800;52.704;6.398;2023-09-18T03:56:20;47.70;;;44.07;;
54897;SDS011;40800;52.704;6.398;2023-09-18T03:58:47;48.20;;;44.70;;
54897;SDS011;40800;52.704;6.398;2023-09-18T04:01:15;48.17;;;44.63;;
54897;SDS011;40800;52.704;6.398;2023-09-18T04:03:41;47.53;;;43.85;;
54897;SDS011;40800;52.704;6.398;2023-09-18T04:06:06;46.55;;;43.15;;
54897;SDS011;40800;52.704;6.398;2023-09-18T04:08:32;46.67;;;43.22;;
54897;SDS011;40800;52.704;6.398;2023-09-18T04:10:58;46.67;;;43.25;;
54897;SDS011;40800;52.704;6.398;2023-09-18T04:13:24;46.97;;;43.42;;
54897;SDS011;40800;52.704;6.398;2023-09-18T04:15:49;48.05;;;44.33;;
54897;SDS011;40800;52.704;6.398;2023-09-18T04:18:15;47.75;;;44.22;;
54897;SDS011;40800;52.704;6.398;2023-09-18T04:20:41;46.73;;;43.50;;
54897;SDS011;40800;52.704;6.398;2023-09-18T04:25:46;46.78;;;43.17;;
54897;SDS011;40800;52.704;6.398;2023-09-18T04:28:12;47.80;;;44.47;;
54897;SDS011;40800;52.704;6.398;2023-09-18T04:30:39;47.35;;;43.95;;
54897;SDS011;40800;52.704;6.398;2023-09-18T04:33:05;46.13;;;42.92;;
54897;SDS011;40800;52.704;6.398;2023-09-18T04:35:31;46.10;;;42.80;;
54897;SDS011;40800;52.704;6.398;2023-09-18T04:37:57;44.60;;;41.40;;
54897;SDS011;40800;52.704;6.398;2023-09-18T04:40:23;45.35;;;42.10;;
54897;SDS011;40800;52.704;6.398;2023-09-18T04:42:50;45.33;;;41.80;;
54897;SDS011;40800;52.704;6.398;2023-09-18T04:45:15;45.03;;;41.78;;
54897;SDS011;40800;52.704;6.398;2023-09-18T04:47:41;45.00;;;41.67;;
54897;SDS011;40800;52.704;6.398;2023-09-18T04:50:07;43.88;;;40.70;;
54897;SDS011;40800;52.704;6.398;2023-09-18T04:52:34;43.10;;;39.95;;
54897;SDS011;40800;52.704;6.398;2023-09-18T04:55:00;41.92;;;38.90;;
54897;SDS011;40800;52.704;6.398;2023-09-18T04:57:26;41.58;;;38.78;;
54897;SDS011;40800;52.704;6.398;2023-09-18T04:59:52;42.55;;;39.30;;
54897;SDS011;40800;52.704;6.398;2023-09-18T05:02:17;42.25;;;39.10;;
54897;SDS011;40800;52.704;6.398;2023-09-18T05:04:43;43.47;;;40.08;;
54897;SDS011;40800;52.704;6.398;2023-09-18T05:07:08;42.35;;;39.35;;
54897;SDS011;40800;52.704;6.398;2023-09-18T05:09:34;41.63;;;38.53;;
54897;SDS011;40800;52.704;6.398;2023-09-18T05:12:00;41.92;;;39.08;;
54897;SDS011;40800;52.704;6.398;2023-09-18T05:14:26;41.05;;;38.25;;
54897;SDS011;40800;52.704;6.398;2023-09-18T05:16:51;42.58;;;39.38;;
54897;SDS011;40800;52.704;6.398;2023-09-18T05:19:17;39.78;;;36.97;;
54897;SDS011;40800;52.704;6.398;2023-09-18T05:21:43;40.38;;;37.45;;
54897;SDS011;40800;52.704;6.398;2023-09-18T05:24:08;40.03;;;37.20;;
54897;SDS011;40800;52.704;6.398;2023-09-18T05:26:34;39.05;;;36.05;;
54897;SDS011;40800;52.704;6.398;2023-09-18T05:29:00;39.05;;;36.28;;
54897;SDS011;40800;52.704;6.398;2023-09-18T05:31:25;38.45;;;35.85;;
54897;SDS011;40800;52.704;6.398;2023-09-18T05:33:51;39.47;;;36.80;;
54897;SDS011;40800;52.704;6.398;2023-09-18T05:36:17;38.88;;;35.90;;
54897;SDS011;40800;52.704;6.398;2023-09-18T05:38:42;40.67;;;37.72;;
54897;SDS011;40800;52.704;6.398;2023-09-18T05:41:08;39.35;;;36.85;;
54897;SDS011;40800;52.704;6.398;2023-09-18T05:43:35;40.67;;;37.72;;
54897;SDS011;40800;52.704;6.398;2023-09-18T05:46:01;39.92;;;37.42;;
54897;SDS011;40800;52.704;6.398;2023-09-18T05:48:27;40.10;;;37.13;;
54897;SDS011;40800;52.704;6.398;2023-09-18T05:50:52;38.05;;;35.17;;
54897;SDS011;40800;52.704;6.398;2023-09-18T05:53:19;37.85;;;34.85;;
54897;SDS011;40800;52.704;6.398;2023-09-18T05:55:45;36.75;;;34.08;;
54897;SDS011;40800;52.704;6.398;2023-09-18T05:58:12;36.78;;;34.03;;
54897;SDS011;40800;52.704;6.398;2023-09-18T06:00:37;37.65;;;34.80;;
54897;SDS011;40800;52.704;6.398;2023-09-18T06:03:03;35.53;;;33.05;;
54897;SDS011;40800;52.704;6.398;2023-09-18T06:05:30;36.05;;;33.35;;
54897;SDS011;40800;52.704;6.398;2023-09-18T06:07:56;49.87;;;46.93;;
54897;SDS011;40800;52.704;6.398;2023-09-18T06:10:23;45.47;;;42.43;;
54897;SDS011;40800;52.704;6.398;2023-09-18T06:12:49;36.75;;;34.10;;
54897;SDS011;40800;52.704;6.398;2023-09-18T06:15:14;36.17;;;33.67;;
54897;SDS011;40800;52.704;6.398;2023-09-18T06:17:41;37.28;;;34.58;;
54897;SDS011;40800;52.704;6.398;2023-09-18T06:20:08;37.78;;;34.78;;
54897;SDS011;40800;52.704;6.398;2023-09-18T06:22:36;37.17;;;34.28;;
54897;SDS011;40800;52.704;6.398;2023-09-18T06:25:03;36.38;;;33.55;;
54897;SDS011;40800;52.704;6.398;2023-09-18T06:27:29;36.67;;;34.00;;
54897;SDS011;40800;52.704;6.398;2023-09-18T06:29:54;37.45;;;34.47;;
54897;SDS011;40800;52.704;6.398;2023-09-18T06:32:20;37.30;;;34.60;;
54897;SDS011;40800;52.704;6.398;2023-09-18T06:34:46;40.88;;;37.58;;
54897;SDS011;40800;52.704;6.398;2023-09-18T06:37:12;40.55;;;37.55;;
54897;SDS011;40800;52.704;6.398;2023-09-18T06:39:38;42.42;;;39.20;;
54897;SDS011;40800;52.704;6.398;2023-09-18T06:42:04;42.63;;;39.35;;
54897;SDS011;40800;52.704;6.398;2023-09-18T06:44:29;44.20;;;40.65;;
54897;SDS011;40800;52.704;6.398;2023-09-18T06:46:55;44.78;;;41.33;;
54897;SDS011;40800;52.704;6.398;2023-09-18T06:49:21;49.10;;;44.13;;
54897;SDS011;40800;52.704;6.398;2023-09-18T06:51:46;46.42;;;42.47;;
54897;SDS011;40800;52.704;6.398;2023-09-18T06:54:12;48.53;;;44.72;;
54897;SDS011;40800;52.704;6.398;2023-09-18T06:56:37;47.42;;;43.42;;
54897;SDS011;40800;52.704;6.398;2023-09-18T06:59:03;49.42;;;45.35;;
54897;SDS011;40800;52.704;6.398;2023-09-18T07:01:29;50.17;;;45.88;;
54897;SDS011;40800;52.704;6.398;2023-09-18T07:03:56;49.90;;;45.90;;
54897;SDS011;40800;52.704;6.398;2023-09-18T07:06:24;51.13;;;46.80;;
54897;SDS011;40800;52.704;6.398;2023-09-18T07:08:49;48.47;;;44.50;;
54897;SDS011;40800;52.704;6.398;2023-09-18T07:11:16;49.35;;;45.28;;
54897;SDS011;40800;52.704;6.398;2023-09-18T07:13:42;46.60;;;42.70;;
54897;SDS011;40800;52.704;6.398;2023-09-18T07:16:08;47.63;;;43.92;;
54897;SDS011;40800;52.704;6.398;2023-09-18T07:18:34;47.20;;;43.43;;
54897;SDS011;40800;52.704;6.398;2023-09-18T07:21:00;43.85;;;40.65;;
54897;SDS011;40800;52.704;6.398;2023-09-18T07:23:26;45.45;;;41.97;;
54897;SDS011;40800;52.704;6.398;2023-09-18T07:25:51;44.45;;;41.05;;
54897;SDS011;40800;52.704;6.398;2023-09-18T07:28:17;44.50;;;40.78;;
54897;SDS011;40800;52.704;6.398;2023-09-18T07:30:44;44.97;;;41.67;;
54897;SDS011;40800;52.704;6.398;2023-09-18T07:33:10;44.58;;;41.25;;
54897;SDS011;40800;52.704;6.398;2023-09-18T07:35:36;45.85;;;42.10;;
54897;SDS011;40800;52.704;6.398;2023-09-18T07:38:03;44.55;;;41.33;;
54897;SDS011;40800;52.704;6.398;2023-09-18T07:40:29;46.28;;;42.67;;
54897;SDS011;40800;52.704;6.398;2023-09-18T07:42:54;45.90;;;42.30;;
54897;SDS011;40800;52.704;6.398;2023-09-18T07:45:20;44.50;;;41.20;;
54897;SDS011;40800;52.704;6.398;2023-09-18T07:47:45;45.28;;;41.92;;
54897;SDS011;40800;52.704;6.398;2023-09-18T07:50:11;43.80;;;40.42;;
54897;SDS011;40800;52.704;6.398;2023-09-18T07:52:37;44.72;;;41.30;;
54897;SDS011;40800;52.704;6.398;2023-09-18T07:55:03;45.33;;;41.95;;
54897;SDS011;40800;52.704;6.398;2023-09-18T07:57:29;45.67;;;42.30;;
54897;SDS011;40800;52.704;6.398;2023-09-18T07:59:57;46.20;;;42.42;;
54897;SDS011;40800;52.704;6.398;2023-09-18T08:02:23;44.73;;;41.23;;
54897;SDS011;40800;52.704;6.398;2023-09-18T08:04:49;44.70;;;41.30;;
54897;SDS011;40800;52.704;6.398;2023-09-18T08:07:15;45.40;;;41.63;;
54897;SDS011;40800;52.704;6.398;2023-09-18T08:09:41;44.10;;;40.60;;
54897;SDS011;40800;52.704;6.398;2023-09-18T08:12:07;45.85;;;42.17;;
54897;SDS011;40800;52.704;6.398;2023-09-18T08:14:34;43.72;;;40.42;;
54897;SDS011;40800;52.704;6.398;2023-09-18T08:17:03;44.05;;;40.60;;
54897;SDS011;40800;52.704;6.398;2023-09-18T08:19:29;43.92;;;40.63;;
54897;SDS011;40800;52.704;6.398;2023-09-18T08:21:57;43.83;;;40.17;;
54897;SDS011;40800;52.704;6.398;2023-09-18T08:24:24;44.67;;;41.25;;
54897;SDS011;40800;52.704;6.398;2023-09-18T08:26:50;45.47;;;41.90;;
54897;SDS011;40800;52.704;6.398;2023-09-18T08:29:16;45.45;;;42.20;;
54897;SDS011;40800;52.704;6.398;2023-09-18T08:31:42;44.50;;;41.13;;
54897;SDS011;40800;52.704;6.398;2023-09-18T08:34:08;44.95;;;41.67;;
54897;SDS011;40800;52.704;6.398;2023-09-18T08:36:34;45.30;;;41.92;;
54897;SDS011;40800;52.704;6.398;2023-09-18T08:39:00;44.88;;;41.45;;
54897;SDS011;40800;52.704;6.398;2023-09-18T08:41:26;47.65;;;43.78;;
54897;SDS011;40800;52.704;6.398;2023-09-18T08:44:03;47.22;;;43.72;;
54897;SDS011;40800;52.704;6.398;2023-09-18T08:46:32;46.20;;;42.65;;
54897;SDS011;40800;52.704;6.398;2023-09-18T08:48:59;46.00;;;42.55;;
54897;SDS011;40800;52.704;6.398;2023-09-18T08:51:25;44.97;;;41.67;;
54897;SDS011;40800;52.704;6.398;2023-09-18T08:53:51;44.33;;;41.22;;
54897;SDS011;40800;52.704;6.398;2023-09-18T08:56:19;44.35;;;41.17;;
54897;SDS011;40800;52.704;6.398;2023-09-18T08:58:46;44.20;;;41.00;;
54897;SDS011;40800;52.704;6.398;2023-09-18T09:01:12;45.40;;;42.20;;
54897;SDS011;40800;52.704;6.398;2023-09-18T09:03:39;46.10;;;42.28;;
54897;SDS011;40800;52.704;6.398;2023-09-18T09:08:32;44.88;;;41.45;;
54897;SDS011;40800;52.704;6.398;2023-09-18T09:10:58;44.80;;;41.67;;
54897;SDS011;40800;52.704;6.398;2023-09-18T09:13:24;45.20;;;42.00;;
54897;SDS011;40800;52.704;6.398;2023-09-18T09:15:53;43.90;;;40.75;;
54897;SDS011;40800;52.704;6.398;2023-09-18T09:18:23;42.95;;;40.15;;
54897;SDS011;40800;52.704;6.398;2023-09-18T09:20:53;43.72;;;40.42;;
54897;SDS011;40800;52.704;6.398;2023-09-18T09:23:27;43.15;;;40.13;;
54897;SDS011;40800;52.704;6.398;2023-09-18T09:25:54;42.17;;;39.28;;
54897;SDS011;40800;52.704;6.398;2023-09-18T09:28:40;42.25;;;39.42;;
54897;SDS011;40800;52.704;6.398;2023-09-18T09:31:08;40.63;;;37.83;;
54897;SDS011;40800;52.704;6.398;2023-09-18T09:33:35;39.60;;;36.83;;
54897;SDS011;40800;52.704;6.398;2023-09-18T09:36:04;39.80;;;37.08;;
54897;SDS011;40800;52.704;6.398;2023-09-18T09:41:00;39.03;;;36.53;;
54897;SDS011;40800;52.704;6.398;2023-09-18T09:43:26;38.05;;;35.65;;
54897;SDS011;40800;52.704;6.398;2023-09-18T09:46:00;38.17;;;35.47;;
54897;SDS011;40800;52.704;6.398;2023-09-18T09:48:26;36.78;;;34.10;;
54897;SDS011;40800;52.704;6.398;2023-09-18T09:50:52;35.03;;;32.80;;
54897;SDS011;40800;52.704;6.398;2023-09-18T09:58:39;35.42;;;33.03;;
54897;SDS011;40800;52.704;6.398;2023-09-18T10:01:09;35.05;;;33.05;;
54897;SDS011;40800;52.704;6.398;2023-09-18T10:03:43;33.47;;;31.42;;
54897;SDS011;40800;52.704;6.398;2023-09-18T10:06:10;34.17;;;32.17;;
54897;SDS011;40800;52.704;6.398;2023-09-18T10:08:39;33.33;;;31.23;;
54897;SDS011;40800;52.704;6.398;2023-09-18T10:11:06;33.90;;;31.55;;
54897;SDS011;40800;52.704;6.398;2023-09-18T10:16:06;31.95;;;29.95;;
54897;SDS011;40800;52.704;6.398;2023-09-18T10:18:39;30.85;;;28.90;;
54897;SDS011;40800;52.704;6.398;2023-09-18T10:21:20;32.33;;;30.33;;
54897;SDS011;40800;52.704;6.398;2023-09-18T10:24:14;30.02;;;28.13;;
54897;SDS011;40800;52.704;6.398;2023-09-18T10:26:48;27.15;;;25.35;;
54897;SDS011;40800;52.704;6.398;2023-09-18T10:29:15;28.30;;;26.60;;
54897;SDS011;40800;52.704;6.398;2023-09-18T10:31:44;26.05;;;24.35;;
54897;SDS011;40800;52.704;6.398;2023-09-18T10:34:12;24.77;;;23.27;;
54897;SDS011;40800;52.704;6.398;2023-09-18T10:36:41;25.13;;;23.58;;
54897;SDS011;40800;52.704;6.398;2023-09-18T10:39:09;22.45;;;20.95;;
54897;SDS011;40800;52.704;6.398;2023-09-18T10:41:37;22.15;;;20.85;;
54897;SDS011;40800;52.704;6.398;2023-09-18T10:44:04;22.50;;;21.10;;
54897;SDS011;40800;52.704;6.398;2023-09-18T10:46:31;20.08;;;18.67;;
54897;SDS011;40800;52.704;6.398;2023-09-18T10:48:58;19.92;;;18.73;;
54897;SDS011;40800;52.704;6.398;2023-09-18T10:51:25;19.77;;;18.38;;
54897;SDS011;40800;52.704;6.398;2023-09-18T10:56:19;19.95;;;18.65;;
54897;SDS011;40800;52.704;6.398;2023-09-18T10:58:45;18.45;;;17.33;;
54897;SDS011;40800;52.704;6.398;2023-09-18T11:01:11;18.27;;;17.10;;
54897;SDS011;40800;52.704;6.398;2023-09-18T11:06:07;18.48;;;17.38;;
54897;SDS011;40800;52.704;6.398;2023-09-18T11:08:45;18.38;;;17.17;;
54897;SDS011;40800;52.704;6.398;2023-09-18T11:11:13;17.73;;;16.52;;
54897;SDS011;40800;52.704;6.398;2023-09-18T11:13:45;17.98;;;16.77;;
54897;SDS011;40800;52.704;6.398;2023-09-18T11:18:50;16.20;;;15.30;;
54897;SDS011;40800;52.704;6.398;2023-09-18T11:21:29;14.45;;;13.50;;
54897;SDS011;40800;52.704;6.398;2023-09-18T11:26:30;14.27;;;13.48;;
54897;SDS011;40800;52.704;6.398;2023-09-18T11:29:06;14.35;;;13.43;;
54897;SDS011;40800;52.704;6.398;2023-09-18T11:31:47;14.65;;;13.65;;
54897;SDS011;40800;52.704;6.398;2023-09-18T11:34:22;13.70;;;12.63;;
54897;SDS011;40800;52.704;6.398;2023-09-18T11:36:51;13.80;;;12.73;;
54897;SDS011;40800;52.704;6.398;2023-09-18T11:39:33;13.47;;;12.40;;
54897;SDS011;40800;52.704;6.398;2023-09-18T11:42:12;15.30;;;14.20;;
54897;SDS011;40800;52.704;6.398;2023-09-18T11:44:44;17.63;;;16.42;;
54897;SDS011;40800;52.704;6.398;2023-09-18T11:47:13;20.20;;;18.73;;
54897;SDS011;40800;52.704;6.398;2023-09-18T11:49:51;21.25;;;19.98;;
54897;SDS011;40800;52.704;6.398;2023-09-18T11:52:26;23.27;;;21.77;;
54897;SDS011;40800;52.704;6.398;2023-09-18T11:54:55;23.55;;;22.27;;
54897;SDS011;40800;52.704;6.398;2023-09-18T11:57:22;23.05;;;21.75;;
54897;SDS011;40800;52.704;6.398;2023-09-18T11:59:49;23.20;;;21.80;;
54897;SDS011;40800;52.704;6.398;2023-09-18T12:02:28;22.92;;;21.70;;
54897;SDS011;40800;52.704;6.398;2023-09-18T12:05:11;21.02;;;19.73;;
54897;SDS011;40800;52.704;6.398;2023-09-18T12:07:40;18.20;;;17.05;;
54897;SDS011;40800;52.704;6.398;2023-09-18T12:10:11;18.10;;;16.90;;
54897;SDS011;40800;52.704;6.398;2023-09-18T12:12:37;16.98;;;15.98;;
54897;SDS011;40800;52.704;6.398;2023-09-18T12:15:03;16.33;;;15.33;;
54897;SDS011;40800;52.704;6.398;2023-09-18T12:17:29;18.00;;;16.75;;
54897;SDS011;40800;52.704;6.398;2023-09-18T12:19:55;16.13;;;15.13;;
54897;SDS011;40800;52.704;6.398;2023-09-18T12:22:27;15.88;;;14.73;;
54897;SDS011;40800;52.704;6.398;2023-09-18T12:25:10;14.30;;;13.40;;
54897;SDS011;40800;52.704;6.398;2023-09-18T12:27:42;16.13;;;14.93;;
54897;SDS011;40800;52.704;6.398;2023-09-18T12:30:08;16.38;;;15.18;;
54897;SDS011;40800;52.704;6.398;2023-09-18T12:32:37;14.98;;;13.90;;
54897;SDS011;40800;52.704;6.398;2023-09-18T12:35:05;15.55;;;14.27;;
54897;SDS011;40800;52.704;6.398;2023-09-18T12:37:32;14.45;;;13.30;;
54897;SDS011;40800;52.704;6.398;2023-09-18T12:40:05;14.27;;;13.27;;
54897;SDS011;40800;52.704;6.398;2023-09-18T12:42:36;14.75;;;13.38;;
54897;SDS011;40800;52.704;6.398;2023-09-18T12:45:05;13.63;;;12.50;;
54897;SDS011;40800;52.704;6.398;2023-09-18T12:47:35;14.57;;;13.38;;
54897;SDS011;40800;52.704;6.398;2023-09-18T12:50:04;13.70;;;12.65;;
54897;SDS011;40800;52.704;6.398;2023-09-18T12:52:31;13.60;;;12.52;;
54897;SDS011;40800;52.704;6.398;2023-09-18T12:54:58;14.13;;;13.02;;
54897;SDS011;40800;52.704;6.398;2023-09-18T12:57:25;13.10;;;12.00;;
54897;SDS011;40800;52.704;6.398;2023-09-18T12:59:50;11.95;;;10.93;;
54897;SDS011;40800;52.704;6.398;2023-09-18T13:02:19;12.65;;;11.63;;
54897;SDS011;40800;52.704;6.398;2023-09-18T13:04:51;12.07;;;11.13;;
54897;SDS011;40800;52.704;6.398;2023-09-18T13:07:18;12.70;;;11.75;;
54897;SDS011;40800;52.704;6.398;2023-09-18T13:09:57;11.90;;;10.90;;
54897;SDS011;40800;52.704;6.398;2023-09-18T13:12:41;12.18;;;11.27;;
54897;SDS011;40800;52.704;6.398;2023-09-18T13:15:07;11.40;;;10.50;;
54897;SDS011;40800;52.704;6.398;2023-09-18T13:17:44;11.68;;;10.57;;
54897;SDS011;40800;52.704;6.398;2023-09-18T13:22:40;9.90;;;9.18;;
54897;SDS011;40800;52.704;6.398;2023-09-18T13:27:33;9.13;;;8.43;;
54897;SDS011;40800;52.704;6.398;2023-09-18T13:29:59;9.63;;;8.83;;
54897;SDS011;40800;52.704;6.398;2023-09-18T13:32:32;9.93;;;9.10;;
54897;SDS011;40800;52.704;6.398;2023-09-18T13:34:59;10.60;;;9.63;;
54897;SDS011;40800;52.704;6.398;2023-09-18T13:37:24;10.67;;;9.60;;
54897;SDS011;40800;52.704;6.398;2023-09-18T13:39:52;9.35;;;8.38;;
54897;SDS011;40800;52.704;6.398;2023-09-18T13:42:17;8.00;;;7.40;;
54897;SDS011;40800;52.704;6.398;2023-09-18T13:44:43;10.60;;;6.60;;
54897;SDS011;40800;52.704;6.398;2023-09-18T13:47:08;7.37;;;5.90;;
54897;SDS011;40800;52.704;6.398;2023-09-18T13:49:34;6.30;;;5.70;;
54897;SDS011;40800;52.704;6.398;2023-09-18T13:51:59;7.57;;;5.83;;
54897;SDS011;40800;52.704;6.398;2023-09-18T13:54:25;8.40;;;6.20;;
54897;SDS011;40800;52.704;6.398;2023-09-18T13:56:51;6.90;;;5.93;;
54897;SDS011;40800;52.704;6.398;2023-09-18T13:59:17;7.28;;;6.38;;
54897;SDS011;40800;52.704;6.398;2023-09-18T14:01:42;6.33;;;5.70;;
54897;SDS011;40800;52.704;6.398;2023-09-18T14:04:08;6.13;;;5.53;;
54897;SDS011;40800;52.704;6.398;2023-09-18T14:06:34;9.60;;;5.00;;
54897;SDS011;40800;52.704;6.398;2023-09-18T14:08:59;7.90;;;5.20;;
54897;SDS011;40800;52.704;6.398;2023-09-18T14:11:25;6.20;;;4.37;;
54897;SDS011;40800;52.704;6.398;2023-09-18T14:13:51;5.80;;;4.72;;
54897;SDS011;40800;52.704;6.398;2023-09-18T14:16:16;6.30;;;3.93;;
54897;SDS011;40800;52.704;6.398;2023-09-18T14:18:42;4.73;;;4.10;;
54897;SDS011;40800;52.704;6.398;2023-09-18T14:21:08;5.97;;;3.60;;
54897;SDS011;40800;52.704;6.398;2023-09-18T14:23:34;5.03;;;3.73;;
54897;SDS011;40800;52.704;6.398;2023-09-18T14:25:59;5.87;;;3.10;;
54897;SDS011;40800;52.704;6.398;2023-09-18T14:28:25;6.78;;;3.63;;
54897;SDS011;40800;52.704;6.398;2023-09-18T14:30:51;4.43;;;3.43;;
54897;SDS011;40800;52.704;6.398;2023-09-18T14:33:17;4.43;;;3.33;;
54897;SDS011;40800;52.704;6.398;2023-09-18T14:35:42;7.13;;;3.60;;
54897;SDS011;40800;52.704;6.398;2023-09-18T14:38:08;6.43;;;3.47;;
54897;SDS011;40800;52.704;6.398;2023-09-18T14:40:34;4.82;;;3.42;;
54897;SDS011;40800;52.704;6.398;2023-09-18T14:43:00;5.67;;;3.50;;
54897;SDS011;40800;52.704;6.398;2023-09-18T14:45:26;4.60;;;3.30;;
54897;SDS011;40800;52.704;6.398;2023-09-18T14:47:51;6.40;;;3.73;;
54897;SDS011;40800;52.704;6.398;2023-09-18T14:50:17;5.87;;;3.27;;
54897;SDS011;40800;52.704;6.398;2023-09-18T14:52:43;7.07;;;3.60;;
54897;SDS011;40800;52.704;6.398;2023-09-18T14:55:08;6.50;;;3.30;;
54897;SDS011;40800;52.704;6.398;2023-09-18T14:57:34;5.43;;;3.17;;
54897;SDS011;40800;52.704;6.398;2023-09-18T14:59:59;5.20;;;3.37;;
54897;SDS011;40800;52.704;6.398;2023-09-18T15:02:25;5.03;;;3.03;;